Hallowell, Kansas
Current Conditions -  °F | °C
As of 2:15 PM on Sunday 25 Jan 2015 (Local Time) from KPTS Reporting Station
Overcast Overcast  
Wind Chill: 35°   Ceiling: 2400
Heat Index: 43°   Visibility: 10mi
Dew Point: 34°   Wind: 20mph
Humidity: 70%   Direction: 330°NNW
Pressure: 29.88"   Gusts: 32mph
Location:  37.1637°N, 94.898°W
Report Text: KPTS 252015Z AUTO 33017G28KT 10SM OVC024 06/01 A2988 RMK AO2 T00630011
Loading
Personal Weather Stations






























Interactive Weather Map New forecast layout! Learn more

10-Day Weather Forecast

Advertisements
Track Severe Weather on mobile